Language: 


Des rapports , des résumés tant et plus, au choix de chacun....


Données Historiques de Météogheer
Journalier Rapport pour Février 26, 2017 Unitée:  Les deux    Impériale   Métrique
Suivant Jour »
Journalier Hebdomadaire Mensuel Annuel Sur mesure
  Max: Min: Moyenne:
Température: 54.3 °F /  12.4 °C 32 °F /  0.0 °C 49.3 °F /  9.6 °C
Point de rosée: 50.9 °F /  10.5 °C 39 °F /  3.9 °C 45 °F /  7.2 °C
Humidité: 94% 0% 85%
Vent: 17.2mph /  27.7km/h - 7.8mph /  12.6km/h
Rafales: 20.1mph /  32.3km/h - -
Vent- - SW
Pression: 29.9 in /  1013.1 hPa 0 in /  0.0 hPa -
Pluie: 0 in /  0.0 mm    
Historical Graphs
 
 
Données tabulaires pour Février 26, 2017
Heure Température Point de rosée Pression Vent Vent Rafales Humidité Pluie Taux (Horaire) Conditions
00:00 46.9 °F /  8.3 °C 39.7 °F /  4.3 °C 29.9in /  1012.1hPa SW 7.4mph /  11.9km/h 12.1mph /  19.5km/h 76% 0in /  0.0mm
00:05 46.9 °F /  8.3 °C 39.6 °F /  4.2 °C 29.9in /  1012.1hPa SSW 5.8mph /  9.3km/h 10.3mph /  16.6km/h 75% 0in /  0.0mm
00:10 46.9 °F /  8.3 °C 39.6 °F /  4.2 °C 29.9in /  1013.1hPa SSW 5.8mph /  9.3km/h 11.4mph /  18.3km/h 75% 0in /  0.0mm
00:15 46.9 °F /  8.3 °C 39.6 °F /  4.2 °C 29.9in /  1013.1hPa SSW 6mph /  9.7km/h 12.8mph /  20.6km/h 75% 0in /  0.0mm
00:20 46.9 °F /  8.3 °C 39.6 °F /  4.2 °C 29.9in /  1013.1hPa SSW 14.8mph /  23.8km/h 14.8mph /  23.8km/h 75% 0in /  0.0mm
00:25 46.9 °F /  8.3 °C 39.6 °F /  4.2 °C 29.9in /  1013.1hPa SSW 6.5mph /  10.5km/h 14.8mph /  23.8km/h 75% 0in /  0.0mm
00:30 46.9 °F /  8.3 °C 39.6 °F /  4.2 °C 29.9in /  1013.1hPa SW 7.8mph /  12.6km/h 12.5mph /  20.1km/h 75% 0in /  0.0mm
00:35 46.9 °F /  8.3 °C 39.6 °F /  4.2 °C 29.9in /  1013.1hPa WSW 8.7mph /  14.0km/h 10.7mph /  17.2km/h 75% 0in /  0.0mm
00:40 46.9 °F /  8.3 °C 39.6 °F /  4.2 °C 29.9in /  1013.1hPa SSW 6mph /  9.7km/h 12.3mph /  19.8km/h 75% 0in /  0.0mm
00:45 46.9 °F /  8.3 °C 39.6 °F /  4.2 °C 29.9in /  1013.1hPa SSW 6.5mph /  10.5km/h 12.3mph /  19.8km/h 75% 0in /  0.0mm
00:50 46.9 °F /  8.3 °C 39.6 °F /  4.2 °C 29.9in /  1013.1hPa SSW 5.8mph /  9.3km/h 11mph /  17.7km/h 75% 0in /  0.0mm
00:55 46.8 °F /  8.2 °C 39.4 °F /  4.1 °C 29.9in /  1012.1hPa SW 10.1mph /  16.3km/h 11mph /  17.7km/h 75% 0in /  0.0mm
01:00 46.8 °F /  8.2 °C 39.4 °F /  4.1 °C 29.9in /  1012.1hPa SSW 8.7mph /  14.0km/h 11.2mph /  18.0km/h 75% 0in /  0.0mm
01:05 46.8 °F /  8.2 °C 39.6 °F /  4.2 °C 29.9in /  1012.1hPa SSW 5.6mph /  9.0km/h 11.2mph /  18.0km/h 76% 0in /  0.0mm
01:10 46.8 °F /  8.2 °C 39.6 °F /  4.2 °C 29.9in /  1012.1hPa SW 8.1mph /  13.0km/h 11mph /  17.7km/h 76% 0in /  0.0mm
01:15 46.6 °F /  8.1 °C 39.6 °F /  4.2 °C 29.9in /  1012.1hPa SW 9.8mph /  15.8km/h 11mph /  17.7km/h 76% 0in /  0.0mm
01:20 46.6 °F /  8.1 °C 39.6 °F /  4.2 °C 29.9in /  1012.1hPa SW 8.7mph /  14.0km/h 11mph /  17.7km/h 76% 0in /  0.0mm
01:25 46.6 °F /  8.1 °C 39.6 °F /  4.2 °C 29.9in /  1012.1hPa SSW 6mph /  9.7km/h 11mph /  17.7km/h 76% 0in /  0.0mm
01:30 46.6 °F /  8.1 °C 39.6 °F /  4.2 °C 29.9in /  1012.1hPa SW 9.8mph /  15.8km/h 11mph /  17.7km/h 76% 0in /  0.0mm
01:35 46.6 °F /  8.1 °C 39.6 °F /  4.2 °C 29.9in /  1012.1hPa WSW 7.2mph /  11.6km/h 10.5mph /  16.9km/h 76% 0in /  0.0mm
01:40 46.6 °F /  8.1 °C 39.6 °F /  4.2 °C 29.9in /  1012.1hPa SSW 5.8mph /  9.3km/h 10.5mph /  16.9km/h 76% 0in /  0.0mm
01:45 46.6 °F /  8.1 °C 39 °F /  3.9 °C 29.9in /  1012.1hPa SW 9.6mph /  15.4km/h 10.5mph /  16.9km/h 75% 0in /  0.0mm
01:50 46.6 °F /  8.1 °C 39 °F /  3.9 °C 29.9in /  1012.1hPa SW 8.1mph /  13.0km/h 11mph /  17.7km/h 75% 0in /  0.0mm
01:55 46.6 °F /  8.1 °C 39 °F /  3.9 °C 29.9in /  1012.1hPa SW 7.6mph /  12.2km/h 12.5mph /  20.1km/h 75% 0in /  0.0mm
02:02 32 °F /  0.0 °C 39.2 °F /  4.0 °C 0in /  0.0hPa SSW 5.8mph /  9.3km/h 10.7mph /  17.2km/h 0% 0in /  0.0mm
02:07 46.6 °F /  8.1 °C 39 °F /  3.9 °C 29.9in /  1012.1hPa SW 7.2mph /  11.6km/h 10.7mph /  17.2km/h 75% 0in /  0.0mm
02:12 46.6 °F /  8.1 °C 39 °F /  3.9 °C 29.9in /  1012.1hPa SW 8.7mph /  14.0km/h 10.3mph /  16.6km/h 75% 0in /  0.0mm
02:17 46.6 °F /  8.1 °C 39 °F /  3.9 °C 29.9in /  1012.1hPa SSW 4mph /  6.4km/h 11mph /  17.7km/h 75% 0in /  0.0mm
02:22 46.6 °F /  8.1 °C 39.4 °F /  4.1 °C 29.9in /  1011.1hPa SSW 7.6mph /  12.2km/h 11mph /  17.7km/h 76% 0in /  0.0mm
02:27 46.6 °F /  8.1 °C 39.4 °F /  4.1 °C 29.9in /  1011.1hPa SSW 4mph /  6.4km/h 9.8mph /  15.8km/h 76% 0in /  0.0mm
02:32 46.2 °F /  7.9 °C 39 °F /  3.9 °C 29.9in /  1011.1hPa SSW 6.5mph /  10.5km/h 8.5mph /  13.7km/h 76% 0in /  0.0mm
02:37 46.2 °F /  7.9 °C 39 °F /  3.9 °C 29.9in /  1011.1hPa SSW 8.1mph /  13.0km/h 8.9mph /  14.3km/h 76% 0in /  0.0mm
02:42 46.2 °F /  7.9 °C 39 °F /  3.9 °C 29.9in /  1011.1hPa WSW 5.8mph /  9.3km/h 11mph /  17.7km/h 76% 0in /  0.0mm
02:43 46.2 °F /  7.9 °C 39 °F /  3.9 °C 29.9in /  1011.1hPa SSW 3.8mph /  6.1km/h 11mph /  17.7km/h 76% 0in /  0.0mm
02:48 46.2 °F /  7.9 °C 39 °F /  3.9 °C 29.9in /  1011.1hPa SW 6mph /  9.7km/h 11mph /  17.7km/h 76% 0in /  0.0mm
02:53 46.2 °F /  7.9 °C 39 °F /  3.9 °C 29.9in /  1011.1hPa SSW 5.4mph /  8.7km/h 9.8mph /  15.8km/h 76% 0in /  0.0mm
02:58 46.2 °F /  7.9 °C 39 °F /  3.9 °C 29.9in /  1011.1hPa SSW 7.2mph /  11.6km/h 9.6mph /  15.4km/h 76% 0in /  0.0mm
03:03 46.2 °F /  7.9 °C 39 °F /  3.9 °C 29.9in /  1011.1hPa SW 5.6mph /  9.0km/h 11mph /  17.7km/h 76% 0in /  0.0mm
03:08 46 °F /  7.8 °C 39.4 °F /  4.1 °C 29.9in /  1011.1hPa South 8.1mph /  13.0km/h 8.7mph /  14.0km/h 77% 0in /  0.0mm
03:13 46 °F /  7.8 °C 39.4 °F /  4.1 °C 29.9in /  1011.1hPa WSW 10.7mph /  17.2km/h 10.7mph /  17.2km/h 77% 0in /  0.0mm
03:18 46 °F /  7.8 °C 39.4 °F /  4.1 °C 29.9in /  1011.1hPa SW 7.6mph /  12.2km/h 12.8mph /  20.6km/h 77% 0in /  0.0mm
03:23 46 °F /  7.8 °C 39.4 °F /  4.1 °C 29.8in /  1010.0hPa SW 8.5mph /  13.7km/h 12.8mph /  20.6km/h 77% 0in /  0.0mm
03:28 46 °F /  7.8 °C 39.4 °F /  4.1 °C 29.8in /  1010.0hPa SW 7.6mph /  12.2km/h 10.5mph /  16.9km/h 77% 0in /  0.0mm
03:33 46 °F /  7.8 °C 39.4 °F /  4.1 °C 29.8in /  1010.0hPa SW 10.1mph /  16.3km/h 12.5mph /  20.1km/h 77% 0in /  0.0mm
03:38 46.2 °F /  7.9 °C 39.6 °F /  4.2 °C 29.9in /  1011.1hPa SW 7.8mph /  12.6km/h 12.5mph /  20.1km/h 77% 0in /  0.0mm
03:43 46.2 °F /  7.9 °C 39 °F /  3.9 °C 29.9in /  1011.1hPa SSW 7.8mph /  12.6km/h 13mph /  20.9km/h 76% 0in /  0.0mm
03:48 46 °F /  7.8 °C 39.4 °F /  4.1 °C 29.9in /  1011.1hPa SW 8.1mph /  13.0km/h 13.2mph /  21.2km/h 77% 0in /  0.0mm
03:53 46 °F /  7.8 °C 39.4 °F /  4.1 °C 29.9in /  1011.1hPa WSW 7.6mph /  12.2km/h 13.2mph /  21.2km/h 77% 0in /  0.0mm
03:58 46.2 °F /  7.9 °C 39.6 °F /  4.2 °C 29.9in /  1011.1hPa SSW 5.4mph /  8.7km/h 11.4mph /  18.3km/h 77% 0in /  0.0mm
04:03 46.2 °F /  7.9 °C 39.6 °F /  4.2 °C 29.9in /  1011.1hPa SW 8.7mph /  14.0km/h 11.4mph /  18.3km/h 77% 0in /  0.0mm
04:08 46 °F /  7.8 °C 39.4 °F /  4.1 °C 29.9in /  1011.1hPa WSW 7.2mph /  11.6km/h 9.2mph /  14.8km/h 77% 0in /  0.0mm
04:13 46 °F /  7.8 °C 39.4 °F /  4.1 °C 29.9in /  1011.1hPa SSW 6.5mph /  10.5km/h 9.6mph /  15.4km/h 77% 0in /  0.0mm
04:18 46 °F /  7.8 °C 39.4 °F /  4.1 °C 29.9in /  1011.1hPa South 7.8mph /  12.6km/h 12.3mph /  19.8km/h 77% 0in /  0.0mm
04:23 46 °F /  7.8 °C 39.4 °F /  4.1 °C 29.9in /  1011.1hPa WSW 6.3mph /  10.1km/h 12.3mph /  19.8km/h 77% 0in /  0.0mm
04:28 46 °F /  7.8 °C 39.4 °F /  4.1 °C 29.9in /  1011.1hPa SSW 5.4mph /  8.7km/h 13.2mph /  21.2km/h 77% 0in /  0.0mm
04:33 46 °F /  7.8 °C 39.4 °F /  4.1 °C 29.9in /  1011.1hPa SW 8.1mph /  13.0km/h 13.2mph /  21.2km/h 77% 0in /  0.0mm
04:38 46 °F /  7.8 °C 39.4 °F /  4.1 °C 29.9in /  1011.1hPa WSW 8.7mph /  14.0km/h 10.7mph /  17.2km/h 77% 0in /  0.0mm
04:43 46 °F /  7.8 °C 39.4 °F /  4.1 °C 29.9in /  1011.1hPa South 7.6mph /  12.2km/h 11.9mph /  19.1km/h 77% 0in /  0.0mm
04:48 45.9 °F /  7.7 °C 39.6 °F /  4.2 °C 29.9in /  1011.1hPa SW 6.5mph /  10.5km/h 11.9mph /  19.1km/h 78% 0in /  0.0mm
04:53 45.9 °F /  7.7 °C 39.6 °F /  4.2 °C 29.9in /  1011.1hPa SW 6.3mph /  10.1km/h 10.3mph /  16.6km/h 78% 0in /  0.0mm
04:58 45.9 °F /  7.7 °C 39.6 °F /  4.2 °C 29.9in /  1011.1hPa WSW 6mph /  9.7km/h 10.3mph /  16.6km/h 78% 0in /  0.0mm
05:03 45.9 °F /  7.7 °C 39.6 °F /  4.2 °C 29.9in /  1011.1hPa South 5.4mph /  8.7km/h 10.3mph /  16.6km/h 78% 0in /  0.0mm
05:08 45.9 °F /  7.7 °C 39.6 °F /  4.2 °C 29.8in /  1010.0hPa SSW 5.4mph /  8.7km/h 7.8mph /  12.6km/h 78% 0in /  0.0mm
05:13 45.9 °F /  7.7 °C 39.6 °F /  4.2 °C 29.8in /  1010.0hPa SSW 2.5mph /  4.0km/h 8.7mph /  14.0km/h 78% 0in /  0.0mm
05:18 45.9 °F /  7.7 °C 39.6 °F /  4.2 °C 29.8in /  1010.0hPa SSW 3.4mph /  5.5km/h 8.7mph /  14.0km/h 79% 0in /  0.0mm
05:23 45.9 °F /  7.7 °C 39.6 °F /  4.2 °C 29.8in /  1010.0hPa SSW 4mph /  6.4km/h 6mph /  9.7km/h 79% 0in /  0.0mm
05:28 45.9 °F /  7.7 °C 39.9 °F /  4.4 °C 29.8in /  1010.0hPa South 6.5mph /  10.5km/h 7.8mph /  12.6km/h 80% 0in /  0.0mm
05:33 45.9 °F /  7.7 °C 39.9 °F /  4.4 °C 29.8in /  1010.0hPa SSW 6.5mph /  10.5km/h 7.8mph /  12.6km/h 80% 0in /  0.0mm
05:38 45.9 °F /  7.7 °C 39.9 °F /  4.4 °C 29.8in /  1010.0hPa SW 5.4mph /  8.7km/h 6.9mph /  11.1km/h 80% 0in /  0.0mm
05:43 45.9 °F /  7.7 °C 39.9 °F /  4.4 °C 29.8in /  1010.0hPa SSW 5.6mph /  9.0km/h 7.4mph /  11.9km/h 80% 0in /  0.0mm
05:48 45.9 °F /  7.7 °C 40.5 °F /  4.7 °C 29.8in /  1010.0hPa SW 10.1mph /  16.3km/h 10.1mph /  16.3km/h 81% 0in /  0.0mm
05:53 45.9 °F /  7.7 °C 40.5 °F /  4.7 °C 29.8in /  1010.0hPa WSW 6.5mph /  10.5km/h 10.1mph /  16.3km/h 81% 0in /  0.0mm
05:58 45.9 °F /  7.7 °C 40.5 °F /  4.7 °C 29.8in /  1010.0hPa SW 4.3mph /  6.9km/h 10.1mph /  16.3km/h 81% 0in /  0.0mm
06:03 45.9 °F /  7.7 °C 40.6 °F /  4.8 °C 29.8in /  1010.0hPa WSW 6.3mph /  10.1km/h 8.5mph /  13.7km/h 82% 0in /  0.0mm
06:08 45.9 °F /  7.7 °C 40.6 °F /  4.8 °C 29.8in /  1010.0hPa WSW 6.3mph /  10.1km/h 8.5mph /  13.7km/h 82% 0in /  0.0mm
06:13 45.9 °F /  7.7 °C 40.6 °F /  4.8 °C 29.8in /  1010.0hPa SW 6.5mph /  10.5km/h 10.1mph /  16.3km/h 82% 0in /  0.0mm
06:18 45.9 °F /  7.7 °C 40.6 °F /  4.8 °C 29.8in /  1010.0hPa WSW 5.4mph /  8.7km/h 10.1mph /  16.3km/h 82% 0in /  0.0mm
06:23 45.9 °F /  7.7 °C 40.6 °F /  4.8 °C 29.9in /  1011.1hPa SW 8.1mph /  13.0km/h 8.7mph /  14.0km/h 82% 0in /  0.0mm
06:28 45.9 °F /  7.7 °C 40.6 °F /  4.8 °C 29.9in /  1011.1hPa WSW 6.3mph /  10.1km/h 8.7mph /  14.0km/h 82% 0in /  0.0mm
06:33 45.9 °F /  7.7 °C 41.2 °F /  5.1 °C 29.9in /  1011.1hPa SW 4.9mph /  7.9km/h 8.5mph /  13.7km/h 83% 0in /  0.0mm
06:38 45.9 °F /  7.7 °C 40.8 °F /  4.9 °C 29.9in /  1011.1hPa WSW 7.8mph /  12.6km/h 9.8mph /  15.8km/h 83% 0in /  0.0mm
06:43 45.7 °F /  7.6 °C 40.6 °F /  4.8 °C 29.9in /  1011.1hPa SW 5.8mph /  9.3km/h 9.8mph /  15.8km/h 83% 0in /  0.0mm
06:48 45.7 °F /  7.6 °C 41 °F /  5.0 °C 29.9in /  1011.1hPa WSW 7.8mph /  12.6km/h 8.7mph /  14.0km/h 84% 0in /  0.0mm
06:53 45.3 °F /  7.4 °C 41.2 °F /  5.1 °C 29.9in /  1011.1hPa WSW 8.1mph /  13.0km/h 9.6mph /  15.4km/h 85% 0in /  0.0mm
06:59 45.1 °F /  7.3 °C 41 °F /  5.0 °C 29.9in /  1011.1hPa SW 5.6mph /  9.0km/h 9.6mph /  15.4km/h 85% 0in /  0.0mm
07:04 45.1 °F /  7.3 °C 41.2 °F /  5.1 °C 29.9in /  1011.1hPa WSW 6mph /  9.7km/h 8.7mph /  14.0km/h 86% 0in /  0.0mm
07:09 45.1 °F /  7.3 °C 41.2 °F /  5.1 °C 29.9in /  1011.1hPa SW 7.6mph /  12.2km/h 8.7mph /  14.0km/h 86% 0in /  0.0mm
07:14 45.1 °F /  7.3 °C 41.4 °F /  5.2 °C 29.9in /  1011.1hPa SW 8.5mph /  13.7km/h 10.3mph /  16.6km/h 87% 0in /  0.0mm
07:19 45.1 °F /  7.3 °C 41.7 °F /  5.4 °C 29.9in /  1011.1hPa SSW 4mph /  6.4km/h 10.3mph /  16.6km/h 88% 0in /  0.0mm
07:23 45.1 °F /  7.3 °C 42.1 °F /  5.6 °C 29.8in /  1010.0hPa SSW 7.6mph /  12.2km/h 10.5mph /  16.9km/h 89% 0in /  0.0mm
07:28 45.1 °F /  7.3 °C 42.3 °F /  5.7 °C 29.8in /  1010.0hPa SSW 8.7mph /  14.0km/h 10.5mph /  16.9km/h 90% 0in /  0.0mm
07:33 45.1 °F /  7.3 °C 42.3 °F /  5.7 °C 29.8in /  1010.0hPa SW 6mph /  9.7km/h 10.1mph /  16.3km/h 90% 0in /  0.0mm
07:39 45 °F /  7.2 °C 42.4 °F /  5.8 °C 29.9in /  1011.1hPa SSW 6.3mph /  10.1km/h 8.1mph /  13.0km/h 91% 0in /  0.0mm
07:43 45 °F /  7.2 °C 42.6 °F /  5.9 °C 29.9in /  1011.1hPa SW 6.3mph /  10.1km/h 11mph /  17.7km/h 92% 0in /  0.0mm
07:48 44.8 °F /  7.1 °C 42.4 °F /  5.8 °C 29.9in /  1011.1hPa SSW 6.9mph /  11.1km/h 11mph /  17.7km/h 92% 0in /  0.0mm
07:53 44.4 °F /  6.9 °C 42.3 °F /  5.7 °C 29.8in /  1010.0hPa SW 7.2mph /  11.6km/h 12.1mph /  19.5km/h 92% 0in /  0.0mm
07:58 44.4 °F /  6.9 °C 42.3 °F /  5.7 °C 29.8in /  1010.0hPa SSW 6.5mph /  10.5km/h 12.1mph /  19.5km/h 92% 0in /  0.0mm
08:03 44.4 °F /  6.9 °C 42.3 °F /  5.7 °C 29.8in /  1010.0hPa SW 4.9mph /  7.9km/h 10.1mph /  16.3km/h 92% 0in /  0.0mm
08:08 44.8 °F /  7.1 °C 42.8 °F /  6.0 °C 29.9in /  1011.1hPa SSW 6.5mph /  10.5km/h 9.2mph /  14.8km/h 93% 0in /  0.0mm
08:13 45.1 °F /  7.3 °C 43.2 °F /  6.2 °C 29.9in /  1011.1hPa SSW 6.5mph /  10.5km/h 9.8mph /  15.8km/h 93% 0in /  0.0mm
08:18 45.1 °F /  7.3 °C 43.3 °F /  6.3 °C 29.9in /  1011.1hPa WSW 6mph /  9.7km/h 11mph /  17.7km/h 94% 0in /  0.0mm
08:23 45.1 °F /  7.3 °C 43.3 °F /  6.3 °C 29.9in /  1011.1hPa SSW 6.5mph /  10.5km/h 11mph /  17.7km/h 94% 0in /  0.0mm
08:28 45.1 °F /  7.3 °C 43.3 °F /  6.3 °C 29.9in /  1011.1hPa SSW 6.5mph /  10.5km/h 10.7mph /  17.2km/h 93% 0in /  0.0mm
08:33 45.1 °F /  7.3 °C 43.5 °F /  6.4 °C 29.9in /  1011.1hPa South 6.3mph /  10.1km/h 12.1mph /  19.5km/h 94% 0in /  0.0mm
08:38 45.3 °F /  7.4 °C 43.9 °F /  6.6 °C 29.9in /  1011.1hPa WSW 8.7mph /  14.0km/h 12.1mph /  19.5km/h 94% 0in /  0.0mm
08:43 45.3 °F /  7.4 °C 43.9 °F /  6.6 °C 29.9in /  1011.1hPa SW 9.4mph /  15.1km/h 10.7mph /  17.2km/h 94% 0in /  0.0mm
08:48 45.7 °F /  7.6 °C 44.1 °F /  6.7 °C 29.9in /  1011.1hPa SSW 10.1mph /  16.3km/h 10.3mph /  16.6km/h 94% 0in /  0.0mm
08:53 45.9 °F /  7.7 °C 44.1 °F /  6.7 °C 29.9in /  1011.1hPa SW 4.9mph /  7.9km/h 10.7mph /  17.2km/h 94% 0in /  0.0mm
08:58 45.9 °F /  7.7 °C 44.2 °F /  6.8 °C 29.9in /  1011.1hPa SW 5.6mph /  9.0km/h 10.7mph /  17.2km/h 94% 0in /  0.0mm
09:03 45.9 °F /  7.7 °C 44.2 °F /  6.8 °C 29.9in /  1011.1hPa SW 7.8mph /  12.6km/h 10.1mph /  16.3km/h 94% 0in /  0.0mm
09:08 46 °F /  7.8 °C 44.2 °F /  6.8 °C 29.9in /  1011.1hPa WSW 5.8mph /  9.3km/h 10.1mph /  16.3km/h 93% 0in /  0.0mm
09:13 46 °F /  7.8 °C 44.2 °F /  6.8 °C 29.9in /  1011.1hPa SW 6mph /  9.7km/h 10.3mph /  16.6km/h 93% 0in /  0.0mm
09:18 46.2 °F /  7.9 °C 44.4 °F /  6.9 °C 29.9in /  1011.1hPa SSW 9.6mph /  15.4km/h 10.3mph /  16.6km/h 93% 0in /  0.0mm
09:23 46.6 °F /  8.1 °C 44.6 °F /  7.0 °C 29.9in /  1011.1hPa SW 8.1mph /  13.0km/h 10.7mph /  17.2km/h 93% 0in /  0.0mm
09:29 46.6 °F /  8.1 °C 44.8 °F /  7.1 °C 29.9in /  1011.1hPa SSW 6.9mph /  11.1km/h 10.7mph /  17.2km/h 93% 0in /  0.0mm
09:34 46.8 °F /  8.2 °C 45 °F /  7.2 °C 29.9in /  1011.1hPa SW 7.8mph /  12.6km/h 10.1mph /  16.3km/h 93% 0in /  0.0mm
09:39 46.9 °F /  8.3 °C 45.1 °F /  7.3 °C 29.8in /  1010.0hPa SW 4.9mph /  7.9km/h 10.7mph /  17.2km/h 93% 0in /  0.0mm
09:44 47.1 °F /  8.4 °C 45.3 °F /  7.4 °C 29.8in /  1010.0hPa SW 6.5mph /  10.5km/h 10.7mph /  17.2km/h 93% 0in /  0.0mm
09:49 47.3 °F /  8.5 °C 45.3 °F /  7.4 °C 29.8in /  1010.0hPa SW 10.1mph /  16.3km/h 10.7mph /  17.2km/h 93% 0in /  0.0mm
09:54 47.3 °F /  8.5 °C 45.3 °F /  7.4 °C 29.9in /  1011.1hPa SSW 7.6mph /  12.2km/h 10.7mph /  17.2km/h 93% 0in /  0.0mm
09:59 47.5 °F /  8.6 °C 45.7 °F /  7.6 °C 29.9in /  1011.1hPa WSW 6mph /  9.7km/h 10.5mph /  16.9km/h 93% 0in /  0.0mm
10:04 47.5 °F /  8.6 °C 45.7 °F /  7.6 °C 29.9in /  1011.1hPa SW 9.8mph /  15.8km/h 11mph /  17.7km/h 93% 0in /  0.0mm
10:09 47.7 °F /  8.7 °C 45.9 °F /  7.7 °C 29.9in /  1011.1hPa SW 6.5mph /  10.5km/h 11mph /  17.7km/h 93% 0in /  0.0mm
10:14 47.7 °F /  8.7 °C 45.9 °F /  7.7 °C 29.9in /  1011.1hPa WSW 9.6mph /  15.4km/h 11mph /  17.7km/h 93% 0in /  0.0mm
10:19 47.8 °F /  8.8 °C 45.9 °F /  7.7 °C 29.9in /  1011.1hPa SW 8.5mph /  13.7km/h 10.7mph /  17.2km/h 93% 0in /  0.0mm
10:24 48 °F /  8.9 °C 46 °F /  7.8 °C 29.9in /  1011.1hPa SW 7.4mph /  11.9km/h 10.7mph /  17.2km/h 93% 0in /  0.0mm
10:29 48 °F /  8.9 °C 46 °F /  7.8 °C 29.9in /  1011.1hPa WSW 10.1mph /  16.3km/h 10.7mph /  17.2km/h 93% 0in /  0.0mm
10:34 48.2 °F /  9.0 °C 46.2 °F /  7.9 °C 29.9in /  1011.1hPa SSW 9.4mph /  15.1km/h 10.7mph /  17.2km/h 93% 0in /  0.0mm
10:39 48.2 °F /  9.0 °C 46.2 °F /  7.9 °C 29.9in /  1011.1hPa WSW 10.5mph /  16.9km/h 10.5mph /  16.9km/h 93% 0in /  0.0mm
10:44 48.2 °F /  9.0 °C 46.2 °F /  7.9 °C 29.9in /  1011.1hPa SSW 10.7mph /  17.2km/h 11.2mph /  18.0km/h 93% 0in /  0.0mm
10:49 48.4 °F /  9.1 °C 46.2 °F /  7.9 °C 29.9in /  1011.1hPa SW 10.3mph /  16.6km/h 12.8mph /  20.6km/h 92% 0in /  0.0mm
10:54 48.6 °F /  9.2 °C 46.4 °F /  8.0 °C 29.9in /  1011.1hPa SSW 8.7mph /  14.0km/h 13.2mph /  21.2km/h 92% 0in /  0.0mm
10:59 48.7 °F /  9.3 °C 46.8 °F /  8.2 °C 29.9in /  1011.1hPa SSW 7.6mph /  12.2km/h 13.2mph /  21.2km/h 93% 0in /  0.0mm
11:04 48.9 °F /  9.4 °C 46.9 °F /  8.3 °C 29.9in /  1011.1hPa SSW 12.3mph /  19.8km/h 12.3mph /  19.8km/h 93% 0in /  0.0mm
11:09 49.1 °F /  9.5 °C 47.1 °F /  8.4 °C 29.9in /  1011.1hPa SSW 6mph /  9.7km/h 17.7mph /  28.5km/h 93% 0in /  0.0mm
11:14 49.1 °F /  9.5 °C 47.1 °F /  8.4 °C 29.9in /  1011.1hPa SW 7.8mph /  12.6km/h 17.7mph /  28.5km/h 93% 0in /  0.0mm
11:19 49.3 °F /  9.6 °C 47.3 °F /  8.5 °C 29.9in /  1011.1hPa SW 8.5mph /  13.7km/h 13mph /  20.9km/h 93% 0in /  0.0mm
11:24 49.6 °F /  9.8 °C 47.5 °F /  8.6 °C 29.9in /  1011.1hPa SW 7.4mph /  11.9km/h 13.4mph /  21.6km/h 92% 0in /  0.0mm
11:29 49.8 °F /  9.9 °C 47.7 °F /  8.7 °C 29.9in /  1011.1hPa SW 8.5mph /  13.7km/h 13.4mph /  21.6km/h 92% 0in /  0.0mm
11:34 49.8 °F /  9.9 °C 47.7 °F /  8.7 °C 29.9in /  1011.1hPa WSW 11mph /  17.7km/h 13.6mph /  21.9km/h 92% 0in /  0.0mm
11:39 50 °F /  10.0 °C 47.8 °F /  8.8 °C 29.9in /  1011.1hPa South 7.8mph /  12.6km/h 14.3mph /  23.0km/h 92% 0in /  0.0mm
11:44 50.2 °F /  10.1 °C 47.7 °F /  8.7 °C 29.9in /  1011.1hPa WSW 10.3mph /  16.6km/h 14.3mph /  23.0km/h 91% 0in /  0.0mm
11:49 50.2 °F /  10.1 °C 47.7 °F /  8.7 °C 29.9in /  1011.1hPa SW 9.6mph /  15.4km/h 10.7mph /  17.2km/h 91% 0in /  0.0mm
11:54 50.2 °F /  10.1 °C 47.7 °F /  8.7 °C 29.9in /  1011.1hPa WSW 8.5mph /  13.7km/h 12.3mph /  19.8km/h 91% 0in /  0.0mm
11:59 50.2 °F /  10.1 °C 47.7 °F /  8.7 °C 29.9in /  1011.1hPa SW 6mph /  9.7km/h 12.3mph /  19.8km/h 91% 0in /  0.0mm
12:04 50.2 °F /  10.1 °C 47.7 °F /  8.7 °C 29.9in /  1011.1hPa WSW 8.5mph /  13.7km/h 12.3mph /  19.8km/h 91% 0in /  0.0mm
12:09 50.2 °F /  10.1 °C 47.7 °F /  8.7 °C 29.9in /  1011.1hPa SW 8.1mph /  13.0km/h 12.3mph /  19.8km/h 91% 0in /  0.0mm
12:14 50.5 °F /  10.3 °C 48.4 °F /  9.1 °C 29.9in /  1011.1hPa SSW 7.8mph /  12.6km/h 12.3mph /  19.8km/h 92% 0in /  0.0mm
12:19 50.9 °F /  10.5 °C 48.6 °F /  9.2 °C 29.9in /  1011.1hPa WSW 12.3mph /  19.8km/h 12.3mph /  19.8km/h 92% 0in /  0.0mm
12:24 50.9 °F /  10.5 °C 48.6 °F /  9.2 °C 29.8in /  1010.0hPa SSW 10.3mph /  16.6km/h 13.2mph /  21.2km/h 92% 0in /  0.0mm
12:29 51.1 °F /  10.6 °C 48.7 °F /  9.3 °C 29.8in /  1010.0hPa WSW 10.7mph /  17.2km/h 15.2mph /  24.5km/h 92% 0in /  0.0mm
12:30 51.1 °F /  10.6 °C 48.7 °F /  9.3 °C 29.8in /  1010.0hPa SW 10.1mph /  16.3km/h 15.2mph /  24.5km/h 92% 0in /  0.0mm
12:35 51.3 °F /  10.7 °C 48.9 °F /  9.4 °C 29.8in /  1010.0hPa SW 10.7mph /  17.2km/h 17.2mph /  27.7km/h 92% 0in /  0.0mm
12:40 51.4 °F /  10.8 °C 49.3 °F /  9.6 °C 29.8in /  1010.0hPa WSW 12.1mph /  19.5km/h 17.2mph /  27.7km/h 92% 0in /  0.0mm
12:45 51.6 °F /  10.9 °C 48.9 °F /  9.4 °C 29.8in /  1010.0hPa SW 10.7mph /  17.2km/h 15.4mph /  24.8km/h 91% 0in /  0.0mm
12:50 51.8 °F /  11.0 °C 49.5 °F /  9.7 °C 29.8in /  1010.0hPa SSW 7.8mph /  12.6km/h 13mph /  20.9km/h 92% 0in /  0.0mm
12:55 52 °F /  11.1 °C 49.5 °F /  9.7 °C 29.8in /  1010.0hPa SW 7.4mph /  11.9km/h 13.2mph /  21.2km/h 91% 0in /  0.0mm
13:00 51.8 °F /  11.0 °C 49.3 °F /  9.6 °C 29.8in /  1010.0hPa SSW 5.4mph /  8.7km/h 13.2mph /  21.2km/h 91% 0in /  0.0mm
13:05 51.8 °F /  11.0 °C 49.3 °F /  9.6 °C 29.8in /  1010.0hPa SW 12.3mph /  19.8km/h 12.5mph /  20.1km/h 91% 0in /  0.0mm
13:10 51.8 °F /  11.0 °C 49.3 °F /  9.6 °C 29.9in /  1011.1hPa SSW 6.5mph /  10.5km/h 13.2mph /  21.2km/h 91% 0in /  0.0mm
13:15 52 °F /  11.1 °C 49.5 °F /  9.7 °C 29.9in /  1011.1hPa SW 13.4mph /  21.6km/h 13.4mph /  21.6km/h 91% 0in /  0.0mm
13:20 51.8 °F /  11.0 °C 48.9 °F /  9.4 °C 29.9in /  1011.1hPa WSW 10.1mph /  16.3km/h 13.4mph /  21.6km/h 90% 0in /  0.0mm
13:25 52 °F /  11.1 °C 49.1 °F /  9.5 °C 29.8in /  1010.0hPa SSW 5.8mph /  9.3km/h 14.5mph /  23.3km/h 90% 0in /  0.0mm
13:30 52 °F /  11.1 °C 49.1 °F /  9.5 °C 29.8in /  1010.0hPa SW 8.5mph /  13.7km/h 14.5mph /  23.3km/h 90% 0in /  0.0mm
13:35 52 °F /  11.1 °C 49.1 °F /  9.5 °C 29.8in /  1010.0hPa WSW 12.3mph /  19.8km/h 16.1mph /  25.9km/h 90% 0in /  0.0mm
13:40 52 °F /  11.1 °C 49.1 °F /  9.5 °C 29.8in /  1010.0hPa WSW 6.3mph /  10.1km/h 16.1mph /  25.9km/h 90% 0in /  0.0mm
13:45 52.3 °F /  11.3 °C 49.5 °F /  9.7 °C 29.8in /  1010.0hPa SSW 8.7mph /  14.0km/h 14.8mph /  23.8km/h 90% 0in /  0.0mm
13:50 53.1 °F /  11.7 °C 50.4 °F /  10.2 °C 29.8in /  1010.0hPa South 7.8mph /  12.6km/h 13.4mph /  21.6km/h 91% 0in /  0.0mm
13:55 52.9 °F /  11.6 °C 50 °F /  10.0 °C 29.8in /  1010.0hPa SW 8.7mph /  14.0km/h 14.5mph /  23.3km/h 90% 0in /  0.0mm
14:00 52.5 °F /  11.4 °C 49.8 °F /  9.9 °C 29.8in /  1010.0hPa SSW 10.3mph /  16.6km/h 14.5mph /  23.3km/h 90% 0in /  0.0mm
14:05 52.3 °F /  11.3 °C 49.5 °F /  9.7 °C 29.8in /  1010.0hPa SW 8.5mph /  13.7km/h 15.2mph /  24.5km/h 90% 0in /  0.0mm
14:10 52 °F /  11.1 °C 49.5 °F /  9.7 °C 29.8in /  1010.0hPa SW 6.3mph /  10.1km/h 15.7mph /  25.3km/h 91% 0in /  0.0mm
14:15 52 °F /  11.1 °C 49.6 °F /  9.8 °C 29.8in /  1010.0hPa SSW 7.4mph /  11.9km/h 15.7mph /  25.3km/h 92% 0in /  0.0mm
14:20 52 °F /  11.1 °C 49.6 °F /  9.8 °C 29.8in /  1010.0hPa SSW 10.1mph /  16.3km/h 13.2mph /  21.2km/h 92% 0in /  0.0mm
14:21 52 °F /  11.1 °C 49.6 °F /  9.8 °C 29.8in /  1010.0hPa WSW 7.8mph /  12.6km/h 13.2mph /  21.2km/h 92% 0in /  0.0mm
14:26 52 °F /  11.1 °C 50 °F /  10.0 °C 29.8in /  1010.0hPa WSW 11mph /  17.7km/h 12.1mph /  19.5km/h 93% 0in /  0.0mm
14:30 52.2 °F /  11.2 °C 50.2 °F /  10.1 °C 29.8in /  1010.0hPa SSW 8.7mph /  14.0km/h 11.4mph /  18.3km/h 93% 0in /  0.0mm
14:36 52.2 °F /  11.2 °C 50.4 °F /  10.2 °C 29.8in /  1010.0hPa WSW 6mph /  9.7km/h 13.4mph /  21.6km/h 94% 0in /  0.0mm
14:40 52.5 °F /  11.4 °C 50.7 °F /  10.4 °C 29.8in /  1010.0hPa WSW 6.5mph /  10.5km/h 13.4mph /  21.6km/h 94% 0in /  0.0mm
14:46 52.5 °F /  11.4 °C 50.7 °F /  10.4 °C 29.8in /  1010.0hPa SSW 8.1mph /  13.0km/h 13.4mph /  21.6km/h 94% 0in /  0.0mm
14:51 52.5 °F /  11.4 °C 50.5 °F /  10.3 °C 29.8in /  1010.0hPa SSW 8.1mph /  13.0km/h 14.3mph /  23.0km/h 93% 0in /  0.0mm
14:55 52.5 °F /  11.4 °C 49.8 °F /  9.9 °C 29.8in /  1009.0hPa WSW 10.7mph /  17.2km/h 20.1mph /  32.3km/h 91% 0in /  0.0mm
15:01 52.9 °F /  11.6 °C 50.4 °F /  10.2 °C 29.8in /  1009.0hPa WSW 10.1mph /  16.3km/h 20.1mph /  32.3km/h 91% 0in /  0.0mm
15:05 53.1 °F /  11.7 °C 50.2 °F /  10.1 °C 29.8in /  1009.0hPa WSW 8.5mph /  13.7km/h 13.2mph /  21.2km/h 90% 0in /  0.0mm
15:10 53.4 °F /  11.9 °C 50.4 °F /  10.2 °C 29.8in /  1009.0hPa SSW 10.3mph /  16.6km/h 13.2mph /  21.2km/h 89% 0in /  0.0mm
15:16 54.3 °F /  12.4 °C 50.9 °F /  10.5 °C 29.8in /  1009.0hPa SSW 8.1mph /  13.0km/h 13.4mph /  21.6km/h 88% 0in /  0.0mm
15:20 54.3 °F /  12.4 °C 50.4 °F /  10.2 °C 29.8in /  1009.0hPa SW 11mph /  17.7km/h 14.5mph /  23.3km/h 86% 0in /  0.0mm
15:25 54.1 °F /  12.3 °C 49.8 °F /  9.9 °C 29.8in /  1008.0hPa SW 9.6mph /  15.4km/h 14.8mph /  23.8km/h 85% 0in /  0.0mm
15:31 54.1 °F /  12.3 °C 49.5 °F /  9.7 °C 29.8in /  1008.0hPa SW 9.8mph /  15.8km/h 15.4mph /  24.8km/h 84% 0in /  0.0mm
15:35 54.1 °F /  12.3 °C 49.5 °F /  9.7 °C 29.8in /  1008.0hPa SW 7.8mph /  12.6km/h 15.4mph /  24.8km/h 84% 0in /  0.0mm
15:40 54 °F /  12.2 °C 49.3 °F /  9.6 °C 29.8in /  1009.0hPa SW 6mph /  9.7km/h 13.2mph /  21.2km/h 84% 0in /  0.0mm
15:45 54 °F /  12.2 °C 48.9 °F /  9.4 °C 29.8in /  1009.0hPa SSW 12.1mph /  19.5km/h 13mph /  20.9km/h 83% 0in /  0.0mm
15:50 54 °F /  12.2 °C 48.9 °F /  9.4 °C 29.8in /  1009.0hPa WSW 7.4mph /  11.9km/h 13mph /  20.9km/h 83% 0in /  0.0mm
15:55 54 °F /  12.2 °C 48.7 °F /  9.3 °C 29.8in /  1009.0hPa SW 9.8mph /  15.8km/h 12.8mph /  20.6km/h 83% 0in /  0.0mm
16:00 54 °F /  12.2 °C 48.7 °F /  9.3 °C 29.8in /  1009.0hPa SW 11mph /  17.7km/h 14.5mph /  23.3km/h 83% 0in /  0.0mm
16:05 53.8 °F /  12.1 °C 48.7 °F /  9.3 °C 29.8in /  1009.0hPa SSW 10.3mph /  16.6km/h 14.5mph /  23.3km/h 83% 0in /  0.0mm
16:10 53.8 °F /  12.1 °C 48.7 °F /  9.3 °C 29.8in /  1009.0hPa SSW 6.3mph /  10.1km/h 17.7mph /  28.5km/h 83% 0in /  0.0mm
16:16 54 °F /  12.2 °C 48.7 °F /  9.3 °C 29.8in /  1009.0hPa WSW 9.8mph /  15.8km/h 17.7mph /  28.5km/h 83% 0in /  0.0mm
16:21 54 °F /  12.2 °C 48.9 °F /  9.4 °C 29.8in /  1009.0hPa WSW 15.2mph /  24.5km/h 15.9mph /  25.6km/h 83% 0in /  0.0mm
16:26 54 °F /  12.2 °C 47.8 °F /  8.8 °C 29.8in /  1009.0hPa WSW 17.2mph /  27.7km/h 19.7mph /  31.7km/h 80% 0in /  0.0mm
16:31 54 °F /  12.2 °C 47.3 °F /  8.5 °C 29.8in /  1009.0hPa West 12.8mph /  20.6km/h 19.7mph /  31.7km/h 78% 0in /  0.0mm
16:36 54 °F /  12.2 °C 47.7 °F /  8.7 °C 29.8in /  1009.0hPa WSW 11.4mph /  18.3km/h 17.7mph /  28.5km/h 79% 0in /  0.0mm
16:41 54 °F /  12.2 °C 48 °F /  8.9 °C 29.8in /  1009.0hPa WSW 8.7mph /  14.0km/h 17.4mph /  28.0km/h 80% 0in /  0.0mm
16:46 54 °F /  12.2 °C 48.4 °F /  9.1 °C 29.8in /  1009.0hPa SSW 5.8mph /  9.3km/h 14.5mph /  23.3km/h 81% 0in /  0.0mm
16:51 54 °F /  12.2 °C 48.4 °F /  9.1 °C 29.8in /  1009.0hPa SW 8.7mph /  14.0km/h 14.3mph /  23.0km/h 81% 0in /  0.0mm
16:56 54 °F /  12.2 °C 48.4 °F /  9.1 °C 29.8in /  1009.0hPa SSW 12.1mph /  19.5km/h 13.2mph /  21.2km/h 81% 0in /  0.0mm
17:01 54 °F /  12.2 °C 48.4 °F /  9.1 °C 29.8in /  1009.0hPa SW 9.8mph /  15.8km/h 13.2mph /  21.2km/h 81% 0in /  0.0mm
17:06 54 °F /  12.2 °C 48.4 °F /  9.1 °C 29.8in /  1009.0hPa SW 9.2mph /  14.8km/h 16.8mph /  27.0km/h 81% 0in /  0.0mm
17:11 54 °F /  12.2 °C 48.4 °F /  9.1 °C 29.8in /  1009.0hPa WSW 11mph /  17.7km/h 16.8mph /  27.0km/h 81% 0in /  0.0mm
17:16 54 °F /  12.2 °C 48.4 °F /  9.1 °C 29.8in /  1009.0hPa SSW 8.5mph /  13.7km/h 17.4mph /  28.0km/h 81% 0in /  0.0mm
17:21 54 °F /  12.2 °C 48.4 °F /  9.1 °C 29.8in /  1009.0hPa SSW 11mph /  17.7km/h 17.4mph /  28.0km/h 81% 0in /  0.0mm
17:26 54 °F /  12.2 °C 48 °F /  8.9 °C 29.8in /  1008.0hPa SSW 7.6mph /  12.2km/h 12.8mph /  20.6km/h 80% 0in /  0.0mm
17:31 54 °F /  12.2 °C 48 °F /  8.9 °C 29.8in /  1008.0hPa SW 9.6mph /  15.4km/h 14.3mph /  23.0km/h 80% 0in /  0.0mm
17:36 54 °F /  12.2 °C 48 °F /  8.9 °C 29.8in /  1008.0hPa SSW 8.5mph /  13.7km/h 14.3mph /  23.0km/h 80% 0in /  0.0mm
17:41 54 °F /  12.2 °C 47.8 °F /  8.8 °C 29.8in /  1008.0hPa SSW 3.6mph /  5.8km/h 13.2mph /  21.2km/h 80% 0in /  0.0mm
17:46 54 °F /  12.2 °C 47.8 °F /  8.8 °C 29.8in /  1008.0hPa SSW 6.7mph /  10.8km/h 13.6mph /  21.9km/h 80% 0in /  0.0mm
17:51 54 °F /  12.2 °C 47.8 °F /  8.8 °C 29.8in /  1008.0hPa SSW 7.6mph /  12.2km/h 13.6mph /  21.9km/h 80% 0in /  0.0mm
17:56 53.8 °F /  12.1 °C 47.7 °F /  8.7 °C 29.8in /  1008.0hPa SW 7.6mph /  12.2km/h 12.8mph /  20.6km/h 80% 0in /  0.0mm
18:01 53.8 °F /  12.1 °C 47.7 °F /  8.7 °C 29.8in /  1008.0hPa SSW 11mph /  17.7km/h 13.4mph /  21.6km/h 80% 0in /  0.0mm
18:06 53.8 °F /  12.1 °C 47.3 °F /  8.5 °C 29.8in /  1008.0hPa SSW 5.8mph /  9.3km/h 13.4mph /  21.6km/h 79% 0in /  0.0mm
18:11 53.8 °F /  12.1 °C 47.3 °F /  8.5 °C 29.8in /  1008.0hPa SSW 7.2mph /  11.6km/h 13mph /  20.9km/h 79% 0in /  0.0mm
18:16 53.4 °F /  11.9 °C 47.1 °F /  8.4 °C 29.8in /  1008.0hPa SW 8.1mph /  13.0km/h 13mph /  20.9km/h 79% 0in /  0.0mm
18:21 53.4 °F /  11.9 °C 47.1 °F /  8.4 °C 29.8in /  1008.0hPa SSW 10.1mph /  16.3km/h 11mph /  17.7km/h 79% 0in /  0.0mm
18:26 53.2 °F /  11.8 °C 46.9 °F /  8.3 °C 29.7in /  1007.0hPa SSW 10.1mph /  16.3km/h 10.5mph /  16.9km/h 79% 0in /  0.0mm
18:31 53.2 °F /  11.8 °C 46.9 °F /  8.3 °C 29.7in /  1007.0hPa SSW 6.5mph /  10.5km/h 11.4mph /  18.3km/h 79% 0in /  0.0mm
18:36 53.2 °F /  11.8 °C 46.8 °F /  8.2 °C 29.7in /  1007.0hPa SW 7.4mph /  11.9km/h 11.4mph /  18.3km/h 79% 0in /  0.0mm
18:41 53.1 °F /  11.7 °C 46.9 °F /  8.3 °C 29.8in /  1008.0hPa West 7.8mph /  12.6km/h 9.2mph /  14.8km/h 80% 0in /  0.0mm
18:46 53.1 °F /  11.7 °C 46.9 °F /  8.3 °C 29.8in /  1008.0hPa WSW 5.8mph /  9.3km/h 10.3mph /  16.6km/h 80% 0in /  0.0mm
18:51 52.9 °F /  11.6 °C 47.1 °F /  8.4 °C 29.8in /  1008.0hPa SW 7.6mph /  12.2km/h 10.3mph /  16.6km/h 81% 0in /  0.0mm
18:56 52.9 °F /  11.6 °C 47.1 °F /  8.4 °C 29.8in /  1008.0hPa SSW 12.3mph /  19.8km/h 12.3mph /  19.8km/h 81% 0in /  0.0mm
19:01 52.9 °F /  11.6 °C 47.5 °F /  8.6 °C 29.8in /  1008.0hPa WSW 10.3mph /  16.6km/h 14.8mph /  23.8km/h 82% 0in /  0.0mm
19:06 52.9 °F /  11.6 °C 47.5 °F /  8.6 °C 29.8in /  1008.0hPa SSW 6.3mph /  10.1km/h 14.8mph /  23.8km/h 82% 0in /  0.0mm
19:11 52.5 °F /  11.4 °C 47.3 °F /  8.5 °C 29.8in /  1008.0hPa WSW 4mph /  6.4km/h 10.5mph /  16.9km/h 82% 0in /  0.0mm
19:16 52.5 °F /  11.4 °C 47.3 °F /  8.5 °C 29.8in /  1008.0hPa SW 6.7mph /  10.8km/h 11mph /  17.7km/h 82% 0in /  0.0mm
19:21 52.5 °F /  11.4 °C 47.7 °F /  8.7 °C 29.8in /  1008.0hPa SSW 6.7mph /  10.8km/h 11mph /  17.7km/h 83% 0in /  0.0mm
19:26 52.5 °F /  11.4 °C 47.5 °F /  8.6 °C 29.8in /  1009.0hPa SSW 4.9mph /  7.9km/h 10.3mph /  16.6km/h 83% 0in /  0.0mm
19:31 52.5 °F /  11.4 °C 47.5 °F /  8.6 °C 29.8in /  1009.0hPa SW 6mph /  9.7km/h 10.5mph /  16.9km/h 83% 0in /  0.0mm
19:36 52.5 °F /  11.4 °C 47.8 °F /  8.8 °C 29.8in /  1009.0hPa SW 5.6mph /  9.0km/h 11mph /  17.7km/h 84% 0in /  0.0mm
19:41 52.5 °F /  11.4 °C 47.8 °F /  8.8 °C 29.8in /  1008.0hPa WSW 5.6mph /  9.0km/h 11mph /  17.7km/h 84% 0in /  0.0mm
19:46 52.5 °F /  11.4 °C 47.8 °F /  8.8 °C 29.8in /  1008.0hPa SSW 7.6mph /  12.2km/h 12.1mph /  19.5km/h 84% 0in /  0.0mm
19:51 52.5 °F /  11.4 °C 47.8 °F /  8.8 °C 29.8in /  1008.0hPa WSW 7.6mph /  12.2km/h 12.1mph /  19.5km/h 84% 0in /  0.0mm
19:56 52.3 °F /  11.3 °C 47.7 °F /  8.7 °C 29.8in /  1008.0hPa SSW 5.4mph /  8.7km/h 11mph /  17.7km/h 84% 0in /  0.0mm
20:01 52.3 °F /  11.3 °C 47.7 °F /  8.7 °C 29.8in /  1008.0hPa SW 5.6mph /  9.0km/h 11mph /  17.7km/h 84% 0in /  0.0mm
20:06 52.3 °F /  11.3 °C 47.7 °F /  8.7 °C 29.8in /  1008.0hPa WSW 9.8mph /  15.8km/h 9.8mph /  15.8km/h 84% 0in /  0.0mm
20:11 52.3 °F /  11.3 °C 47.8 °F /  8.8 °C 29.8in /  1008.0hPa WSW 6.5mph /  10.5km/h 9.8mph /  15.8km/h 85% 0in /  0.0mm
20:16 52.2 °F /  11.2 °C 47.7 °F /  8.7 °C 29.8in /  1008.0hPa WSW 9.4mph /  15.1km/h 9.8mph /  15.8km/h 85% 0in /  0.0mm
20:21 52.2 °F /  11.2 °C 47.7 °F /  8.7 °C 29.8in /  1008.0hPa WSW 9.6mph /  15.4km/h 10.5mph /  16.9km/h 85% 0in /  0.0mm
20:26 52 °F /  11.1 °C 47.7 °F /  8.7 °C 29.8in /  1008.0hPa WSW 6mph /  9.7km/h 10.5mph /  16.9km/h 85% 0in /  0.0mm
20:31 51.8 °F /  11.0 °C 47.5 °F /  8.6 °C 29.8in /  1008.0hPa WSW 7.4mph /  11.9km/h 10.7mph /  17.2km/h 85% 0in /  0.0mm
20:36 51.6 °F /  10.9 °C 47.1 °F /  8.4 °C 29.8in /  1008.0hPa WSW 7.8mph /  12.6km/h 12.1mph /  19.5km/h 85% 0in /  0.0mm
20:41 51.6 °F /  10.9 °C 47.5 °F /  8.6 °C 29.8in /  1008.0hPa WSW 9.8mph /  15.8km/h 14.5mph /  23.3km/h 86% 0in /  0.0mm
20:46 51.4 °F /  10.8 °C 47.5 °F /  8.6 °C 29.8in /  1008.0hPa WSW 10.1mph /  16.3km/h 14.5mph /  23.3km/h 86% 0in /  0.0mm
20:51 51.3 °F /  10.7 °C 47.5 °F /  8.6 °C 29.8in /  1008.0hPa WSW 9.6mph /  15.4km/h 13.6mph /  21.9km/h 87% 0in /  0.0mm
20:56 51.3 °F /  10.7 °C 47.5 °F /  8.6 °C 29.8in /  1008.0hPa WSW 10.5mph /  16.9km/h 13.6mph /  21.9km/h 87% 0in /  0.0mm
21:01 51.3 °F /  10.7 °C 47.5 °F /  8.6 °C 29.8in /  1008.0hPa WSW 10.7mph /  17.2km/h 14.8mph /  23.8km/h 87% 0in /  0.0mm
21:06 51.3 °F /  10.7 °C 47.5 °F /  8.6 °C 29.8in /  1008.0hPa WSW 7.6mph /  12.2km/h 15.2mph /  24.5km/h 87% 0in /  0.0mm
21:11 51.1 °F /  10.6 °C 47.3 °F /  8.5 °C 29.7in /  1007.0hPa WSW 13mph /  20.9km/h 15.2mph /  24.5km/h 87% 0in /  0.0mm
21:16 50.9 °F /  10.5 °C 47.1 °F /  8.4 °C 29.7in /  1007.0hPa SW 10.3mph /  16.6km/h 14.8mph /  23.8km/h 87% 0in /  0.0mm
21:21 50.9 °F /  10.5 °C 47.1 °F /  8.4 °C 29.7in /  1007.0hPa WSW 12.3mph /  19.8km/h 14.8mph /  23.8km/h 87% 0in /  0.0mm
21:26 50.9 °F /  10.5 °C 46.8 °F /  8.2 °C 29.7in /  1007.0hPa WSW 10.1mph /  16.3km/h 14.3mph /  23.0km/h 86% 0in /  0.0mm
21:31 50.9 °F /  10.5 °C 46.8 °F /  8.2 °C 29.7in /  1007.0hPa WSW 8.1mph /  13.0km/h 15.7mph /  25.3km/h 86% 0in /  0.0mm
21:36 50.9 °F /  10.5 °C 46.8 °F /  8.2 °C 29.7in /  1007.0hPa WSW 7.8mph /  12.6km/h 15.7mph /  25.3km/h 86% 0in /  0.0mm
21:41 50.7 °F /  10.4 °C 46.8 °F /  8.2 °C 29.7in /  1007.0hPa WSW 7.6mph /  12.2km/h 13mph /  20.9km/h 86% 0in /  0.0mm
21:46 50.7 °F /  10.4 °C 46.8 °F /  8.2 °C 29.7in /  1007.0hPa WSW 13.2mph /  21.2km/h 13.2mph /  21.2km/h 86% 0in /  0.0mm
21:51 50.5 °F /  10.3 °C 46.6 °F /  8.1 °C 29.7in /  1007.0hPa WSW 6.3mph /  10.1km/h 13.2mph /  21.2km/h 86% 0in /  0.0mm
21:56 50.5 °F /  10.3 °C 46.6 °F /  8.1 °C 29.7in /  1007.0hPa WSW 7.4mph /  11.9km/h 13.2mph /  21.2km/h 86% 0in /  0.0mm
22:01 50.5 °F /  10.3 °C 46.6 °F /  8.1 °C 29.7in /  1007.0hPa SSW 7.4mph /  11.9km/h 13.2mph /  21.2km/h 86% 0in /  0.0mm
22:06 50.5 °F /  10.3 °C 46.2 °F /  7.9 °C 29.7in /  1007.0hPa SW 6.7mph /  10.8km/h 13.2mph /  21.2km/h 85% 0in /  0.0mm
22:11 50.5 °F /  10.3 °C 46.2 °F /  7.9 °C 29.7in /  1007.0hPa SW 7.4mph /  11.9km/h 13.4mph /  21.6km/h 85% 0in /  0.0mm
22:16 50.5 °F /  10.3 °C 46.2 °F /  7.9 °C 29.7in /  1007.0hPa SSW 7.8mph /  12.6km/h 13.4mph /  21.6km/h 85% 0in /  0.0mm
22:21 50.5 °F /  10.3 °C 46.2 °F /  7.9 °C 29.7in /  1007.0hPa SW 6mph /  9.7km/h 10.1mph /  16.3km/h 85% 0in /  0.0mm
22:26 50.5 °F /  10.3 °C 46.2 °F /  7.9 °C 29.7in /  1006.0hPa WSW 7.8mph /  12.6km/h 10.7mph /  17.2km/h 85% 0in /  0.0mm
22:31 50.5 °F /  10.3 °C 46.2 °F /  7.9 °C 29.7in /  1006.0hPa SW 7.6mph /  12.2km/h 10.7mph /  17.2km/h 85% 0in /  0.0mm
22:36 50.5 °F /  10.3 °C 46.6 °F /  8.1 °C 29.7in /  1006.0hPa SW 5.4mph /  8.7km/h 10.7mph /  17.2km/h 86% 0in /  0.0mm
22:41 50.7 °F /  10.4 °C 46.8 °F /  8.2 °C 29.7in /  1007.0hPa SSW 6.3mph /  10.1km/h 11mph /  17.7km/h 86% 0in /  0.0mm
22:46 50.7 °F /  10.4 °C 46.8 °F /  8.2 °C 29.7in /  1007.0hPa SSW 5.4mph /  8.7km/h 11mph /  17.7km/h 86% 0in /  0.0mm
22:51 50.5 °F /  10.3 °C 46.6 °F /  8.1 °C 29.7in /  1007.0hPa SSW 5.6mph /  9.0km/h 9.8mph /  15.8km/h 86% 0in /  0.0mm
22:56 50.5 °F /  10.3 °C 46.6 °F /  8.1 °C 29.7in /  1007.0hPa SSW 4.3mph /  6.9km/h 9.8mph /  15.8km/h 86% 0in /  0.0mm
23:01 50.4 °F /  10.2 °C 46.2 °F /  7.9 °C 29.7in /  1007.0hPa South 7.8mph /  12.6km/h 7.8mph /  12.6km/h 86% 0in /  0.0mm
23:06 50.4 °F /  10.2 °C 46.2 °F /  7.9 °C 29.7in /  1007.0hPa SSW 4.9mph /  7.9km/h 7.8mph /  12.6km/h 86% 0in /  0.0mm
23:11 50.2 °F /  10.1 °C 46.4 °F /  8.0 °C 29.7in /  1007.0hPa SSW 4mph /  6.4km/h 7.6mph /  12.2km/h 87% 0in /  0.0mm
23:16 50.4 °F /  10.2 °C 46.6 °F /  8.1 °C 29.7in /  1007.0hPa SSW 5.6mph /  9.0km/h 6.5mph /  10.5km/h 87% 0in /  0.0mm
23:21 50.4 °F /  10.2 °C 46.9 °F /  8.3 °C 29.7in /  1007.0hPa South 3.8mph /  6.1km/h 6.5mph /  10.5km/h 88% 0in /  0.0mm
23:26 50.4 °F /  10.2 °C 46.9 °F /  8.3 °C 29.7in /  1007.0hPa South 4.3mph /  6.9km/h 7.4mph /  11.9km/h 88% 0in /  0.0mm
23:31 50.5 °F /  10.3 °C 47.5 °F /  8.6 °C 29.7in /  1007.0hPa SSW 3.6mph /  5.8km/h 7.4mph /  11.9km/h 89% 0in /  0.0mm
23:36 50.7 °F /  10.4 °C 47.7 °F /  8.7 °C 29.7in /  1007.0hPa SSW 4.9mph /  7.9km/h 11.2mph /  18.0km/h 89% 0in /  0.0mm
23:41 50.7 °F /  10.4 °C 47.8 °F /  8.8 °C 29.7in /  1006.0hPa SSW 7.6mph /  12.2km/h 11.2mph /  18.0km/h 90% 0in /  0.0mm
23:46 50.9 °F /  10.5 °C 48 °F /  8.9 °C 29.7in /  1006.0hPa SW 6.3mph /  10.1km/h 10.3mph /  16.6km/h 90% 0in /  0.0mm
23:51 50.9 °F /  10.5 °C 47.7 °F /  8.7 °C 29.7in /  1006.0hPa SW 5.4mph /  8.7km/h 10.5mph /  16.9km/h 89% 0in /  0.0mm
23:56 50.9 °F /  10.5 °C 47.7 °F /  8.7 °C 29.7in /  1006.0hPa SSW 7.8mph /  12.6km/h 10.5mph /  16.9km/h 89% 0in /  0.0mm
Données Historique de Météo Turbie

Mise a jour : 24/05/2018 15:54:22
Généré par Cumulus 1.9.4 (1099)